createdAt,value
2022-12-24T08:30:31.007Z,24.66
2022-12-24T08:32:58.156Z,27.33
2022-12-24T08:35:34.237Z,28.56
2022-12-24T08:38:01.347Z,29.36
2022-12-24T08:40:28.552Z,29.92
2022-12-24T08:42:55.726Z,30.25
2022-12-24T08:45:22.986Z,30.59
2022-12-24T08:47:50.208Z,30.99
2022-12-24T08:50:17.477Z,31.26
2022-12-24T08:52:44.577Z,31.55
2022-12-24T08:55:11.780Z,31.92
2022-12-24T08:57:38.968Z,32.09
2022-12-24T09:00:07.502Z,32.22
2022-12-24T09:02:34.855Z,32.21
2022-12-24T09:05:02.364Z,32.25
2022-12-24T09:07:29.474Z,32.28
2022-12-24T09:09:56.675Z,32.18
2022-12-24T09:12:23.818Z,32.23
2022-12-24T09:14:52.106Z,32.31
2022-12-24T09:17:19.214Z,32.32
2022-12-24T09:19:46.787Z,32.32
2022-12-24T09:22:14.453Z,32.48
2022-12-24T09:24:41.604Z,32.55
2022-12-24T09:27:08.764Z,32.57
2022-12-24T09:29:37.019Z,32.65
2022-12-24T09:32:04.912Z,32.70
2022-12-24T09:34:32.125Z,32.73
2022-12-24T09:37:00.940Z,32.72
2022-12-24T09:39:28.120Z,32.69
2022-12-24T09:41:55.314Z,32.69
2022-12-24T09:44:35.562Z,32.68
2022-12-24T09:47:24.667Z,32.73
2022-12-24T09:53:38.044Z,32.76
2022-12-24T09:56:12.185Z,32.61
2022-12-24T09:58:42.231Z,32.55
2022-12-24T10:01:16.859Z,32.53
2022-12-24T10:03:44.311Z,32.57
2022-12-24T10:06:15.296Z,32.58
2022-12-24T10:09:16.559Z,32.60
2022-12-24T10:12:03.065Z,32.80
2022-12-24T10:14:44.246Z,32.83
2022-12-24T10:17:27.575Z,32.67
2022-12-24T10:20:19.307Z,32.64
2022-12-24T10:22:58.942Z,32.59
2022-12-24T10:25:30.803Z,32.57
2022-12-24T10:27:59.032Z,32.54
2022-12-24T10:30:26.325Z,32.54
2022-12-24T10:32:54.110Z,32.53
2022-12-24T10:35:27.173Z,32.57
2022-12-24T10:37:54.440Z,32.63
2022-12-24T10:40:29.695Z,32.72
2022-12-24T10:42:56.903Z,32.93
2022-12-24T10:45:30.275Z,33.02
2022-12-24T10:48:54.311Z,32.97
2022-12-24T10:51:53.199Z,32.96
2022-12-24T10:54:27.829Z,32.86
2022-12-24T10:57:00.362Z,32.72
2022-12-24T10:59:40.858Z,32.61
2022-12-24T11:02:37.759Z,32.55
2022-12-24T11:05:29.112Z,32.58
2022-12-24T11:08:12.206Z,32.58
2022-12-24T11:10:44.674Z,32.59
2022-12-24T11:13:41.733Z,32.74
2022-12-24T11:16:34.006Z,32.75
2022-12-24T11:19:16.422Z,32.65
2022-12-24T11:21:43.577Z,32.65
2022-12-24T11:24:13.808Z,32.65
2022-12-24T11:26:42.452Z,32.70
2022-12-24T11:29:17.035Z,32.74
2022-12-24T11:31:44.557Z,32.71
2022-12-24T11:34:25.675Z,32.69
2022-12-24T11:36:53.920Z,32.68
2022-12-24T11:39:22.826Z,32.70
2022-12-24T11:41:51.368Z,32.87
2022-12-24T11:44:27.854Z,32.89
2022-12-24T11:46:58.632Z,32.87
2022-12-24T11:49:29.366Z,32.90
2022-12-24T11:52:12.304Z,32.83
2022-12-24T11:54:56.654Z,32.77
2022-12-24T11:57:25.428Z,32.73
2022-12-24T11:59:52.674Z,32.69
2022-12-24T12:02:32.596Z,32.59
2022-12-24T12:05:03.464Z,32.58
2022-12-24T12:07:31.743Z,32.77
2022-12-24T12:10:08.821Z,32.84
2022-12-24T12:12:41.565Z,32.80
2022-12-24T12:15:14.026Z,32.79
2022-12-24T12:17:45.182Z,32.72
2022-12-24T12:20:23.196Z,32.69
2022-12-24T12:22:58.664Z,32.65
2022-12-24T12:25:47.385Z,32.60
2022-12-24T12:28:36.861Z,32.56
2022-12-24T12:31:21.071Z,32.37
2022-12-24T12:33:50.491Z,32.36
2022-12-24T12:36:19.711Z,32.34
2022-12-24T12:38:46.865Z,32.28
2022-12-24T12:41:52.209Z,32.24
2022-12-24T12:44:58.680Z,32.47
2022-12-24T12:48:01.331Z,32.46
2022-12-24T12:50:34.252Z,32.44
2022-12-24T12:53:13.281Z,32.41
2022-12-24T12:55:56.716Z,32.35
2022-12-24T12:58:54.685Z,32.35
2022-12-24T13:01:43.927Z,32.27
2022-12-24T13:04:49.309Z,32.25
2022-12-24T13:07:19.623Z,32.16
2022-12-24T13:09:56.196Z,32.11
2022-12-24T13:12:47.714Z,32.06
2022-12-24T13:15:14.867Z,32.01
2022-12-24T13:18:00.764Z,31.99
2022-12-24T13:20:34.048Z,32.24
2022-12-24T13:23:03.209Z,32.17
2022-12-24T13:25:37.850Z,32.11
2022-12-24T13:28:39.024Z,32.05
2022-12-24T13:31:11.916Z,32.10
2022-12-24T13:33:39.166Z,32.00
2022-12-24T13:36:09.481Z,31.95
2022-12-24T13:38:43.693Z,31.68
2022-12-24T13:41:39.415Z,31.69
2022-12-24T13:44:11.278Z,31.76
2022-12-24T13:47:07.009Z,31.59
2022-12-24T13:49:43.966Z,31.64
2022-12-24T13:52:16.474Z,31.67
2022-12-24T13:54:55.790Z,31.87
2022-12-24T13:57:36.867Z,31.94
2022-12-24T14:00:13.439Z,31.95
2022-12-24T14:02:47.755Z,31.87
2022-12-24T14:05:47.297Z,31.85
2022-12-24T14:08:35.928Z,31.82
2022-12-24T14:11:15.297Z,31.79
2022-12-24T14:13:42.427Z,31.74
2022-12-24T14:16:17.726Z,31.75
2022-12-24T14:18:49.021Z,31.71
2022-12-24T14:21:23.032Z,31.69
2022-12-24T14:23:54.376Z,31.68
2022-12-24T14:26:23.785Z,31.64
2022-12-24T14:28:58.829Z,31.60
2022-12-24T14:31:26.103Z,31.68
2022-12-24T14:33:56.105Z,31.83
2022-12-24T14:36:23.753Z,31.90
2022-12-24T14:38:50.900Z,31.85
2022-12-24T14:41:36.078Z,31.83
2022-12-24T14:44:05.781Z,31.79
2022-12-24T14:46:55.152Z,31.74
2022-12-24T14:49:31.929Z,31.70
2022-12-24T14:55:40.305Z,31.88
2022-12-24T14:58:25.885Z,31.80
2022-12-24T15:00:55.600Z,31.70
2022-12-24T15:03:25.069Z,31.57
2022-12-24T15:05:54.425Z,31.51
2022-12-24T15:08:26.597Z,31.51
2022-12-24T15:10:55.054Z,31.55
2022-12-24T15:13:26.612Z,31.74
2022-12-24T15:15:54.452Z,31.86
2022-12-24T15:18:25.423Z,31.91
2022-12-24T15:20:57.201Z,31.85
2022-12-24T15:23:35.745Z,31.84
2022-12-24T15:26:17.023Z,31.80
2022-12-24T15:28:44.297Z,31.74
2022-12-24T15:31:30.605Z,31.91
2022-12-24T15:33:59.552Z,31.99
2022-12-24T15:36:35.189Z,31.98
2022-12-24T15:39:07.693Z,31.86
2022-12-24T15:42:03.900Z,31.79
2022-12-24T15:44:36.173Z,31.95
2022-12-24T15:47:05.876Z,32.14
2022-12-24T15:49:33.333Z,32.12
2022-12-24T15:52:05.932Z,32.04
2022-12-24T15:54:33.054Z,31.90
2022-12-24T15:57:00.145Z,31.92
2022-12-24T15:59:36.264Z,32.18
2022-12-24T16:02:41.101Z,32.34
2022-12-24T16:05:38.944Z,32.19
2022-12-24T16:08:14.774Z,32.10
2022-12-24T16:10:43.981Z,32.03
2022-12-24T16:13:21.158Z,32.08
2022-12-24T16:16:03.299Z,32.26
2022-12-24T16:18:42.496Z,32.37
2022-12-24T16:21:09.649Z,32.33
2022-12-24T16:23:46.698Z,32.28
2022-12-24T20:00:10.796Z,23.43
2022-12-24T20:02:40.933Z,26.03
2022-12-24T20:05:08.478Z,27.17
2022-12-24T20:07:37.014Z,27.93
2022-12-24T20:10:05.334Z,28.46
2022-12-24T20:12:33.816Z,28.80
2022-12-24T20:15:01.101Z,29.05
2022-12-24T20:17:28.742Z,29.26
2022-12-24T20:19:55.701Z,29.59
2022-12-24T20:22:22.736Z,29.80
2022-12-24T20:24:49.873Z,29.93
2022-12-24T20:27:17.643Z,30.00
2022-12-24T20:29:45.102Z,30.04
2022-12-24T20:32:12.303Z,30.14
2022-12-24T20:34:42.269Z,30.38
2022-12-24T20:37:09.313Z,30.46
2022-12-24T20:39:36.566Z,30.48
2022-12-24T20:42:04.543Z,30.53
2022-12-24T20:44:31.785Z,30.54
2022-12-24T20:46:58.938Z,30.52
2022-12-24T20:49:26.087Z,30.52
2022-12-24T20:51:53.241Z,30.70
2022-12-24T20:54:20.693Z,30.78
2022-12-24T20:56:57.530Z,30.80
2022-12-24T20:59:26.197Z,30.84
2022-12-24T21:01:53.490Z,30.82
2022-12-24T21:04:21.514Z,30.90
2022-12-24T21:06:48.984Z,30.85
2022-12-24T21:09:16.434Z,31.02
2022-12-24T21:11:49.440Z,31.03
2022-12-24T21:14:19.437Z,31.01
2022-12-24T21:16:46.595Z,30.91
2022-12-24T21:19:20.498Z,30.85
2022-12-24T21:21:47.546Z,30.84
2022-12-24T21:24:15.053Z,30.77
2022-12-24T21:26:42.420Z,30.93
2022-12-24T21:29:09.801Z,31.00
2022-12-24T21:31:37.167Z,30.99
2022-12-24T21:34:04.427Z,30.97
2022-12-24T21:36:31.765Z,31.00
2022-12-24T21:38:58.926Z,30.97
2022-12-24T21:41:26.892Z,31.14
2022-12-24T21:43:55.065Z,31.21
2022-12-24T21:46:24.504Z,31.15
2022-12-24T21:49:10.984Z,31.14
2022-12-24T21:51:39.354Z,31.14
2022-12-24T21:54:25.591Z,31.12
2022-12-24T21:57:13.279Z,31.09
2022-12-24T21:59:40.529Z,31.33
2022-12-24T22:02:11.490Z,31.35
2022-12-24T22:04:38.925Z,31.25
2022-12-24T22:07:25.340Z,31.22
2022-12-24T22:10:11.422Z,31.15
2022-12-24T22:12:38.987Z,31.14
2022-12-24T22:15:06.665Z,31.15
2022-12-24T22:17:34.416Z,31.34
2022-12-24T22:20:01.455Z,31.38
2022-12-24T22:22:28.721Z,31.28
